Kezdőlap
METAR-TAF:

METAR-TAF

Repülőterek :

Kariba, Zimbabwe

földrajzi szélesség: 16-31S, földrajzi hosszúság: 028-53E, magasság: 518 m

Jelenlegi meteorológiai megfigyelések

A jelentés 14 órával és 9 perccel ezelõtt készült, 09:00 UTC
Keleti szél 7 kt, északi és délkeleti között változik
Hőmérséklet 28°C
Páratartalom 42%
Légköri nyomás 1021 hPa
Látótávolság 10 km, vagy több
felhőtlen 1500 m magasságban, és nincs gomolyfelhõ

METAR: FVKB 190900Z 09007KT 360V130 CAVOK 28/14 Q1021 NOSIG

Idő: 01:09 (23:09 UTC)


TAF: hiányzik

Meteorológiai megfigyelések és előrejelzések több, mint 4000 repülőtéren (METAR és TAF jelentéseket).

A térképen piros és sárga pontok jelzik az elérhető meteorológiai állomásokat.

Mozgassa az egeret a pont fölött, hogy megjelenjen az állomás neve.

Azután kattintson az időjárási megfigyelések és előrejelzések megtekintéséhez.

A térkép megváltoztatása: kattintson a fekete keresztel jelölt zöld gombra ráközelítéshez, a vonallal jelölt zöld gombra távolításhoz, vagy a zöld nyilakra a szomszédos térképek eléréséhez.


METAR-TAF: